createdAt,value
2023-01-25T00:01:06.399Z,29.17
2023-01-25T00:06:09.738Z,29.95
2023-01-25T00:11:11.907Z,25.33
2023-01-25T00:16:15.628Z,24.63
2023-01-25T00:21:19.871Z,28.98
2023-01-25T00:26:22.035Z,30.73
2023-01-25T00:31:38.220Z,27.55
2023-01-25T00:36:42.003Z,25.48
2023-01-25T00:41:44.454Z,27.65
2023-01-25T00:46:48.341Z,27.40
2023-01-25T00:51:50.971Z,31.13
2023-01-25T00:56:53.232Z,27.95
2023-01-25T01:01:57.209Z,30.20
2023-01-25T01:06:59.388Z,31.90
2023-01-25T01:12:01.496Z,28.05
2023-01-25T01:17:05.021Z,29.90
2023-01-25T01:22:07.416Z,29.70
2023-01-25T01:27:09.590Z,29.15
2023-01-25T01:32:13.267Z,27.88
2023-01-25T01:37:15.521Z,28.60
2023-01-25T01:42:17.674Z,28.70
2023-01-25T01:47:25.700Z,32.45
2023-01-25T01:52:31.255Z,27.52
2023-01-25T01:57:38.101Z,27.92
2023-01-25T02:02:41.868Z,28.38
2023-01-25T02:07:47.060Z,39.28
2023-01-25T02:12:49.321Z,31.83
2023-01-25T02:17:53.293Z,32.28
2023-01-25T02:23:01.964Z,33.72
2023-01-25T02:28:15.412Z,32.63
2023-01-25T02:33:17.981Z,31.30
2023-01-25T02:38:20.902Z,29.27
2023-01-25T02:43:29.265Z,29.17
2023-01-25T02:48:31.352Z,36.08
2023-01-25T02:53:33.495Z,31.20
2023-01-25T02:58:37.031Z,33.92
2023-01-25T03:03:39.234Z,31.75
2023-01-25T03:08:41.398Z,33.45
2023-01-25T03:13:44.910Z,31.33
2023-01-25T03:18:47.046Z,35.00
2023-01-25T03:23:54.898Z,36.45
2023-01-25T03:28:58.504Z,38.55
2023-01-25T03:34:00.819Z,37.05
2023-01-25T03:39:03.122Z,36.45
2023-01-25T03:44:06.803Z,38.85
2023-01-25T03:49:09.894Z,39.60
2023-01-25T03:54:12.050Z,40.05
2023-01-25T03:59:15.548Z,39.50
2023-01-25T04:04:17.746Z,34.33
2023-01-25T04:09:19.894Z,35.67
2023-01-25T04:14:42.551Z,34.95
2023-01-25T04:19:45.561Z,34.47
2023-01-25T04:24:47.678Z,40.25
2023-01-25T04:29:51.201Z,35.92
2023-01-25T04:34:53.368Z,35.90
2023-01-25T04:39:55.513Z,37.22
2023-01-25T04:44:59.028Z,35.92
2023-01-25T04:50:01.201Z,36.88
2023-01-25T04:55:03.518Z,38.10
2023-01-25T05:00:11.589Z,37.50
2023-01-25T05:05:14.185Z,37.85
2023-01-25T05:15:27.026Z,33.95
2023-01-25T05:20:29.471Z,34.22
2023-01-25T05:25:32.761Z,37.20
2023-01-25T05:30:36.358Z,39.40
2023-01-25T05:35:38.445Z,41.92
2023-01-25T05:40:40.519Z,39.30
2023-01-25T05:45:44.076Z,37.25
2023-01-25T05:50:46.158Z,39.05
2023-01-25T05:55:48.304Z,40.90
2023-01-25T06:00:51.848Z,34.22
2023-01-25T06:05:55.595Z,40.05
2023-01-25T06:10:58.155Z,40.65
2023-01-25T06:16:01.906Z,42.75
2023-01-25T06:21:05.274Z,44.55
2023-01-25T06:26:10.244Z,42.90
2023-01-25T06:31:15.885Z,37.67
2023-01-25T06:36:20.439Z,37.65
2023-01-25T06:41:22.663Z,40.88
2023-01-25T06:46:26.452Z,42.40
2023-01-25T06:51:29.297Z,43.33
2023-01-25T06:56:31.541Z,40.25
2023-01-25T07:01:35.237Z,39.60
2023-01-25T07:06:38.929Z,41.17
2023-01-25T07:11:41.082Z,38.28
2023-01-25T07:16:44.908Z,39.55
2023-01-25T07:21:47.159Z,45.08
2023-01-25T07:26:49.240Z,37.75
2023-01-25T07:31:52.857Z,43.88
2023-01-25T07:36:54.998Z,46.15
2023-01-25T07:41:57.116Z,44.47
2023-01-25T07:47:00.720Z,44.47
2023-01-25T07:52:02.856Z,44.28
2023-01-25T07:57:08.010Z,41.88
2023-01-25T08:02:12.363Z,38.10
2023-01-25T08:07:15.171Z,45.72
2023-01-25T08:12:17.318Z,40.20
2023-01-25T08:17:20.888Z,43.30
2023-01-25T08:22:23.057Z,30.23
2023-01-25T08:27:25.241Z,42.10
2023-01-25T08:32:28.962Z,40.45
2023-01-25T08:37:31.190Z,43.72
2023-01-25T08:42:33.341Z,46.28
2023-01-25T08:47:36.955Z,47.05
2023-01-25T08:52:39.333Z,42.53
2023-01-25T08:57:41.464Z,40.22
2023-01-25T09:02:45.021Z,44.08
2023-01-25T09:07:47.222Z,41.97
2023-01-25T09:12:49.364Z,42.15
2023-01-25T09:17:54.343Z,39.67
2023-01-25T09:22:56.925Z,34.05
2023-01-25T09:27:59.120Z,42.33
2023-01-25T09:33:02.671Z,41.22
2023-01-25T09:38:04.875Z,37.92
2023-01-25T09:43:15.900Z,42.28
2023-01-25T09:48:29.673Z,39.83
2023-01-25T09:53:35.258Z,45.85
2023-01-25T09:58:40.562Z,48.67
2023-01-25T10:03:52.513Z,49.13
2023-01-25T10:09:00.613Z,50.95
2023-01-25T10:14:07.444Z,48.17
2023-01-25T10:19:18.664Z,53.53
2023-01-25T10:24:40.264Z,52.08
2023-01-25T10:29:42.979Z,51.50
2023-01-25T10:34:56.226Z,52.95
2023-01-25T10:40:03.744Z,47.63
2023-01-25T10:45:12.589Z,54.40
2023-01-25T10:50:43.958Z,46.78
2023-01-25T10:55:59.884Z,50.08
2023-01-25T11:01:04.244Z,50.05
2023-01-25T11:06:09.169Z,51.45
2023-01-25T11:11:27.260Z,50.38
2023-01-25T11:16:35.912Z,45.17
2023-01-25T11:21:51.804Z,46.22
2023-01-25T11:27:13.029Z,44.38
2023-01-25T11:32:18.318Z,47.28
2023-01-25T11:37:36.610Z,39.00
2023-01-25T11:42:52.223Z,39.17
2023-01-25T11:48:09.520Z,39.05
2023-01-25T11:53:30.571Z,39.78
2023-01-25T11:58:52.276Z,38.20
2023-01-25T12:04:35.922Z,37.70
2023-01-25T12:10:03.927Z,36.90
2023-01-25T12:15:30.520Z,41.88
2023-01-25T12:20:46.938Z,45.22
2023-01-25T12:26:04.141Z,41.63
2023-01-25T12:31:14.884Z,42.30
2023-01-25T12:36:21.795Z,45.53
2023-01-25T12:41:33.673Z,39.92
2023-01-25T12:46:42.533Z,42.42
2023-01-25T12:51:46.680Z,38.70
2023-01-25T12:56:58.758Z,45.00
2023-01-25T13:02:13.407Z,40.15
2023-01-25T13:07:20.943Z,40.53
2023-01-25T13:12:24.623Z,44.35
2023-01-25T13:17:31.139Z,43.08
2023-01-25T13:22:59.137Z,43.25
2023-01-25T13:28:37.385Z,39.10
2023-01-25T13:33:41.061Z,33.22
2023-01-25T13:38:43.245Z,37.72
2023-01-25T13:44:08.778Z,40.15
2023-01-25T13:49:22.350Z,42.72
2023-01-25T13:54:24.503Z,36.05
2023-01-25T13:59:27.935Z,43.60
2023-01-25T14:04:31.846Z,37.72
2023-01-25T14:09:34.789Z,34.65
2023-01-25T14:14:37.670Z,42.40
2023-01-25T14:19:43.020Z,43.83
2023-01-25T14:24:45.153Z,36.50
2023-01-25T14:29:49.349Z,42.17
2023-01-25T14:34:53.017Z,46.17
2023-01-25T14:39:55.270Z,42.75
2023-01-25T14:44:57.607Z,41.40
2023-01-25T14:50:33.880Z,37.33
2023-01-25T14:55:37.612Z,44.22
2023-01-25T15:00:40.851Z,42.15
2023-01-25T15:05:47.799Z,41.00
2023-01-25T15:15:55.671Z,40.53
2023-01-25T15:20:59.367Z,62.47
2023-01-25T15:26:01.819Z,43.28
2023-01-25T15:31:04.996Z,40.97
2023-01-25T15:36:09.537Z,37.97
2023-01-25T15:41:12.105Z,40.90
2023-01-25T15:46:19.516Z,42.72
2023-01-25T15:51:23.556Z,44.03
2023-01-25T15:56:29.358Z,40.30
2023-01-25T16:01:31.580Z,44.78
2023-01-25T16:06:38.627Z,43.50
2023-01-25T16:16:45.906Z,41.70
2023-01-25T16:21:50.148Z,38.58
2023-01-25T16:26:54.024Z,43.85
2023-01-25T16:31:57.088Z,40.88
2023-01-25T16:37:03.749Z,36.92
2023-01-25T16:42:06.026Z,36.88
2023-01-25T16:47:16.166Z,40.58
2023-01-25T16:52:19.861Z,42.63
2023-01-25T16:57:22.119Z,38.97
2023-01-25T17:02:24.286Z,42.40
2023-01-25T17:07:27.883Z,42.50
2023-01-25T17:12:30.513Z,42.03
2023-01-25T17:17:32.655Z,49.33
2023-01-25T17:22:36.187Z,40.47
2023-01-25T17:27:38.352Z,41.83
2023-01-25T17:32:40.442Z,42.08
2023-01-25T17:37:43.969Z,45.80
2023-01-25T17:42:46.174Z,42.85
2023-01-25T17:47:48.315Z,47.42
2023-01-25T17:52:51.816Z,41.50
2023-01-25T17:57:54.005Z,31.35
2023-01-25T18:02:56.129Z,42.83
2023-01-25T18:08:01.530Z,44.15
2023-01-25T18:13:05.202Z,39.55
2023-01-25T18:18:07.330Z,40.47
2023-01-25T18:23:10.885Z,42.95
2023-01-25T18:28:14.236Z,37.35
2023-01-25T18:33:16.373Z,38.20
2023-01-25T18:38:19.980Z,35.40
2023-01-25T18:43:24.362Z,39.55
2023-01-25T18:48:28.285Z,41.63
2023-01-25T18:53:32.750Z,37.25
2023-01-25T18:58:36.790Z,38.88
2023-01-25T19:03:39.714Z,41.50
2023-01-25T19:08:43.600Z,41.50
2023-01-25T19:13:45.786Z,36.45
2023-01-25T19:18:50.188Z,36.25
2023-01-25T19:23:55.111Z,42.20
2023-01-25T19:28:57.263Z,41.88
2023-01-25T19:34:03.728Z,33.92
2023-01-25T19:39:07.456Z,39.63
2023-01-25T19:44:12.090Z,36.33
2023-01-25T19:49:14.421Z,39.92
2023-01-25T19:54:18.034Z,42.95
2023-01-25T19:59:21.622Z,39.72
2023-01-25T20:04:24.518Z,40.38
2023-01-25T20:09:28.473Z,41.80
2023-01-25T20:14:32.335Z,37.45
2023-01-25T20:25:30.033Z,49.97
2023-01-25T20:30:34.438Z,41.42
2023-01-25T20:35:36.571Z,40.13
2023-01-25T20:40:40.134Z,37.47
2023-01-25T20:45:42.187Z,39.10
2023-01-25T20:50:44.351Z,36.38
2023-01-25T20:55:55.135Z,34.72
2023-01-25T21:00:57.457Z,43.33
2023-01-25T21:06:00.257Z,38.72
2023-01-25T21:11:04.264Z,35.17
2023-01-25T21:16:08.904Z,34.33
2023-01-25T21:21:13.047Z,37.38
2023-01-25T21:26:18.588Z,34.30
2023-01-25T21:31:23.150Z,36.53
2023-01-25T21:36:25.771Z,37.78
2023-01-25T21:41:31.074Z,35.50
2023-01-25T21:46:33.654Z,33.83
2023-01-25T21:51:35.840Z,37.53
2023-01-25T21:56:39.355Z,39.30
2023-01-25T22:01:41.627Z,38.88
2023-01-25T22:06:44.347Z,38.13
2023-01-25T22:11:48.508Z,33.40
2023-01-25T22:16:50.825Z,33.60
2023-01-25T22:21:52.960Z,38.22
2023-01-25T22:27:23.580Z,32.63
2023-01-25T22:32:25.713Z,31.95
2023-01-25T22:37:27.885Z,33.20
2023-01-25T22:42:31.438Z,28.10
2023-01-25T22:47:33.551Z,31.77
2023-01-25T22:52:35.630Z,36.83
2023-01-25T22:57:39.151Z,36.38
2023-01-25T23:02:41.228Z,31.88
2023-01-25T23:07:43.350Z,35.45
2023-01-25T23:12:46.874Z,34.65
2023-01-25T23:17:49.011Z,36.35
2023-01-25T23:22:51.308Z,34.55
2023-01-25T23:27:54.813Z,33.22
2023-01-25T23:32:57.505Z,35.78
2023-01-25T23:37:59.646Z,31.85
2023-01-25T23:43:03.134Z,32.58
2023-01-25T23:48:05.495Z,32.40
2023-01-25T23:53:07.596Z,30.08
2023-01-25T23:58:11.138Z,38.28
